Flight Track Log - Related Links

Times and Time Zones

All times are in EDT time to prevent confusion due to time zone crossing. See the AFL150 flight status page for this flight to view local times or setup timezone preferences in your user account.

Time Position Orientation Groundspeed Altitude Reporting Facility
EDT Latitude Longitude Course Direction KTS MPH feet Rate Location/Type
Sun 06:22:00 AM 56.2265 36.6666 307° West  Level Estimated
Sun 06:23:00 AM 56.2964 36.4942 306° West  Level Estimated
Sun 06:24:00 AM 56.3660 36.3211 306° West  Level Estimated
Sun 06:25:00 AM 56.4355 36.1475 306° West  Level Estimated
Sun 06:26:00 AM 56.5047 35.9731 306° West  Level Estimated
Sun 06:27:00 AM 56.5736 35.7982 306° West  Level Estimated
Sun 06:28:00 AM 56.6423 35.6226 305° West  Level Estimated
Sun 06:29:00 AM 56.7108 35.4464 305° West  Level Estimated
Sun 06:30:00 AM 56.7789 35.2695 305° West  Level Estimated
Sun 06:31:00 AM 56.8469 35.0920 305° West  Level Estimated
Sun 06:32:00 AM 56.9146 34.9139 305° West  Level Estimated
Sun 06:33:00 AM 56.9820 34.7351 305° West  Level Estimated
Sun 06:34:00 AM 57.0492 34.5556 305° West  Level Estimated
Sun 06:35:00 AM 57.1162 34.3756 304° West  Level Estimated
Sun 06:36:00 AM 57.1828 34.1948 304° West  Level Estimated
Sun 06:37:00 AM 57.2492 34.0134 304° West  Level Estimated
Sun 06:38:00 AM 57.3154 33.8314 304° West  Level Estimated
Sun 06:39:00 AM 57.3813 33.6487 304° West  Level Estimated
Sun 06:40:00 AM 57.4469 33.4653 304° West  Level Estimated
Sun 06:41:00 AM 57.5122 33.2813 304° West  Level Estimated
Sun 06:42:00 AM 57.5773 33.0966 303° West  Level Estimated
Sun 06:43:00 AM 57.6421 32.9113 303° West  Level Estimated
Sun 06:44:00 AM 57.7067 32.7253 303° West  Level Estimated
Sun 06:45:00 AM 57.7709 32.5386 303° West  Level Estimated
Sun 06:46:00 AM 57.8349 32.3513 303° West  Level Estimated
Sun 06:47:00 AM 57.8986 32.1633 303° West  Level Estimated
Sun 06:47:18 AM 56.5003 31.7561 278° West 426 490 34,000  Level FlightAware ADS-B
Sun 06:48:19 AM 56.5176 31.5388 278° West 425 489 34,000  Level FlightAware ADS-B
Sun 06:49:19 AM 56.5343 31.3249 278° West 426 490 34,000  Level FlightAware ADS-B
Sun 06:50:19 AM 56.5647 31.1211 291° West 425 489 34,000  Level FlightAware ADS-B
Sun 06:51:19 AM 56.6199 30.9331 305° West 425 489 34,000  Level FlightAware ADS-B
Sun 06:52:19 AM 56.6951 30.7674 311° West 426 490 34,000  Level FlightAware ADS-B
Sun 06:53:19 AM 56.7642 30.5936 305° West 426 490 34,000  Level FlightAware ADS-B
Sun 06:54:18 AM 56.8299 30.4198 304° West 426 490 34,000  Level FlightAware ADS-B
Sun 06:55:11 AM 56.8876 30.2635 304° West 427 491 34,000  Level FlightAware ADS-B
Sun 06:56:18 AM 56.9530 30.0850 304° West 426 490 34,000  Level FlightAware ADS-B
Sun 06:57:19 AM 57.0275 29.8796 304° West 424 488 34,000  Level FlightAware ADS-B
Sun 06:58:19 AM 57.0924 29.6997 304° West 424 488 34,000  Level FlightAware ADS-B
Sun 06:59:19 AM 57.1565 29.5208 303° West 428 493 34,000  Level FlightAware ADS-B
Sun 07:00:16 AM 57.2177 29.3486 303° West 429 494 34,000  Level FlightAware ADS-B
Sun 07:01:18 AM 57.2831 29.1634 303° West 427 491 34,000  Level FlightAware ADS-B
Sun 07:02:19 AM 57.3472 28.9805 303° West 426 490 34,000  Level FlightAware ADS-B
Sun 07:03:19 AM 57.4134 28.7902 303° West 424 488 34,000  Level FlightAware ADS-B
Sun 07:04:35 AM 57.4943 28.5554 303° West 427 491 34,000  Level FlightAware ADS-B
Sun 07:05:35 AM 57.5574 28.3708 302° West 427 491 34,000  Level FlightAware ADS-B
Sun 07:06:35 AM 57.6208 28.1840 302° West 425 489 34,000  Level FlightAware ADS-B
Sun 07:07:35 AM 57.6745 28.0244 302° West 425 489 34,000  Level FlightAware ADS-B
Sun 07:08:39 AM 57.7489 27.8022 302° West 427 491 34,000  Level FlightAware ADS-B
Sun 07:09:37 AM 57.8105 27.6162 302° West 429 494 34,000  Level FlightAware ADS-B
Sun 07:10:39 AM 57.8618 27.4072 291° West 431 496 34,000  Level FlightAware ADS-B
Sun 07:11:39 AM 57.9041 27.1974 291° West 433 498 34,000  Level FlightAware ADS-B
Sun 07:12:51 AM 57.9526 26.9562 291° West 434 499 34,000  Level FlightAware ADS-B
Sun 07:13:51 AM 57.9969 26.7322 290° West 435 501 34,000  Level FlightAware ADS-B
Sun 07:14:51 AM 58.0387 26.5192 290° West 437 503 34,000  Level FlightAware ADS-B
Sun 07:15:51 AM 58.0804 26.3043 290° West 438 504 34,000  Level FlightAware ADS-B
Sun 07:16:50 AM 58.1200 26.0979 290° West 437 503 34,000  Level FlightAware ADS-B
Sun 07:17:50 AM 58.1619 25.8780 290° West 437 503 34,000  Level FlightAware ADS-B
Sun 07:18:51 AM 58.2029 25.6598 290° West 437 503 34,000  Level FlightAware ADS-B
Sun 07:19:51 AM 58.2429 25.4439 289° West 439 505 34,000  Level FlightAware ADS-B
Sun 07:20:51 AM 58.2825 25.2278 289° West 438 504 34,000  Level FlightAware ADS-B
Sun 07:21:32 AM 58.3081 25.0871 289° West 438 504 34,000  Level FlightAware ADS-B
Sun 07:22:14 AM 58.3366 24.9292 289° West 439 505 34,000  Level FlightAware ADS-B
Sun 07:23:22 AM 58.3253 24.9920 289° West 439 505 34,000  Level FlightAware ADS-B
Sun 07:34:18 AM 58.7384 22.2417 285° West 439 505 34,000  Level FlightAware ADS-B
Sun 07:35:05 AM 58.7621 22.0635 284° West 438 504 34,000  Level FlightAware ADS-B
Sun 07:36:27 AM 58.8027 21.7538 284° West 439 505 34,000  Level FlightAware ADS-B
Sun 07:37:14 AM 58.8258 21.5745 284° West 441 507 34,000  Level FlightAware ADS-B
Sun 07:37:55 AM 58.8380 21.4795 284° West 442 509 34,000  Level FlightAware ADS-B
Sun 07:38:33 AM 58.8705 21.2767 289° West 441 507 34,000  Level FlightAware ADS-B
Sun 07:39:14 AM 58.8970 21.1254 288° West 440 506 34,000  Level FlightAware ADS-B
Sun 07:39:48 AM 58.9182 20.9987 288° West 440 506 34,000  Level FlightAware ADS-B
Sun 07:40:31 AM 58.9412 20.8599 288° West 439 505 34,000  Level FlightAware ADS-B
Sun 07:41:13 AM 58.9675 20.6980 288° West 439 505 34,000  Level FlightAware ADS-B
Sun 07:42:15 AM 59.0075 20.4501 287° West 440 506 34,000  Level FlightAware ADS-B
Sun 07:42:55 AM 59.0321 20.2961 287° West 441 507 34,000  Level FlightAware ADS-B
Sun 07:43:34 AM 59.0555 20.1489 287° West 441 507 34,000  Level FlightAware ADS-B
Sun 07:44:15 AM 59.0784 20.0029 287° West 442 509 34,000  Level FlightAware ADS-B
Sun 07:44:55 AM 59.1031 19.8444 287° West 443 510 34,000  Level FlightAware ADS-B
Sun 07:45:33 AM 59.1256 19.6985 287° West 443 510 34,000  Level FlightAware ADS-B
Sun 07:46:14 AM 59.1488 19.5466 287° West 442 509 34,000  Level FlightAware ADS-B
Sun 07:46:55 AM 59.1730 19.3867 286° West 442 509 34,000  Level FlightAware ADS-B
Sun 07:47:34 AM 59.1954 19.2372 286° West 442 509 34,000  Level FlightAware ADS-B
Sun 07:48:14 AM 59.2178 19.0867 286° West 442 509 34,000  Level FlightAware ADS-B
Sun 07:48:54 AM 59.2404 18.9325 286° West 443 510 34,000  Level FlightAware ADS-B
Sun 07:49:34 AM 59.2630 18.7779 286° West 443 510 34,000  Level FlightAware ADS-B
Sun 07:50:15 AM 59.2848 18.6270 286° West 444 511 34,000  Level FlightAware ADS-B
Sun 07:50:55 AM 59.3074 18.4692 286° West 444 511 34,000  Level FlightAware ADS-B
Sun 07:51:37 AM 59.3298 18.3119 285° West 445 512 34,000  Level FlightAware ADS-B
Sun 07:52:17 AM 59.3522 18.1522 285° West 446 513 34,000  Level FlightAware ADS-B
Sun 07:52:59 AM 59.3745 17.9920 285° West 447 514 34,000  Level FlightAware ADS-B
Sun 07:53:39 AM 59.3963 17.8338 285° West 448 516 34,000  Level FlightAware ADS-B
Sun 07:54:18 AM 59.4153 17.6942 285° West 449 517 34,000  Level FlightAware ADS-B
Sun 07:54:58 AM 59.4386 17.5215 285° West 450 518 34,000  Level FlightAware ADS-B
Sun 07:55:39 AM 59.4599 17.3616 285° West 452 520 34,000  Level FlightAware ADS-B
Sun 07:56:19 AM 59.4811 17.2012 285° West 451 519 34,000  Level FlightAware ADS-B
Sun 07:56:59 AM 59.5017 17.0433 284° West 451 519 34,000  Level FlightAware ADS-B
Sun 07:57:36 AM 59.5209 16.8952 284° West 452 520 34,000  Level FlightAware ADS-B
Sun 07:58:19 AM 59.5426 16.7254 284° West 453 521 34,000  Level FlightAware ADS-B
Sun 07:58:59 AM 59.5629 16.5653 284° West 454 522 34,000  Level FlightAware ADS-B
Sun 07:59:39 AM 59.5829 16.4056 284° West 454 522 34,000  Level FlightAware ADS-B
Sun 08:00:20 AM 59.6036 16.2390 284° West 454 522 34,000  Level FlightAware ADS-B
Sun 08:01:00 AM 59.6234 16.0769 284° West 455 524 34,000  Level FlightAware ADS-B
Sun 08:01:41 AM 59.6428 15.9171 283° West 455 524 34,000  Level FlightAware ADS-B
Sun 08:02:39 AM 59.6699 15.6897 283° West 456 525 34,000  Level FlightAware ADS-B
Sun 08:03:35 AM 59.7130 15.3206 283° West 459 528 34,000  Level FlightAware ADS-B
Sun 08:04:05 AM 59.7271 15.1976 283° West 459 528 34,000  Level FlightAware ADS-B
Sun 08:04:35 AM 59.7404 15.0808 283° West 458 527 34,000  Level FlightAware ADS-B
Sun 08:05:06 AM 59.7548 14.9534 283° West 459 528 34,000  Level FlightAware ADS-B
Sun 08:05:49 AM 59.7752 14.7708 282° West 460 529 34,000  Level FlightAware ADS-B
Sun 08:06:20 AM 59.7886 14.6496 282° West 461 531 34,000  Level FlightAware ADS-B
Sun 08:06:51 AM 59.8031 14.5170 282° West 461 531 34,000  Level FlightAware ADS-B
Sun 08:07:22 AM 59.8168 14.3893 282° West 462 532 34,000  Level FlightAware ADS-B
Sun 08:07:52 AM 59.8300 14.2665 282° West 463 533 34,000  Level FlightAware ADS-B
Sun 08:08:23 AM 59.8429 14.1450 282° West 463 533 34,000  Level FlightAware ADS-B
Sun 08:09:23 AM 59.8699 13.8867 281° West 461 531 34,000  Level FlightAware ADS-B
Sun 08:10:10 AM 59.8897 13.6935 281° West 462 532 34,000  Level FlightAware ADS-B
Sun 08:10:55 AM 59.9083 13.5093 280° West 462 532 34,000  Level FlightAware ADS-B
Sun 08:11:26 AM 59.9214 13.3772 280° West 464 534 34,000  Level FlightAware ADS-B
Sun 08:11:56 AM 59.9339 13.2504 280° West 463 533 34,000  Level FlightAware ADS-B
Sun 08:12:27 AM 59.9464 13.1225 280° West 463 533 34,000  Level FlightAware ADS-B
Sun 08:12:57 AM 59.9589 12.9938 280° West 463 533 34,000  Level FlightAware ADS-B
Sun 08:13:27 AM 59.9709 12.8686 280° West 463 533 34,000  Level FlightAware ADS-B
Sun 08:13:58 AM 59.9836 12.7407 282° West 462 532 34,000  Level FlightAware ADS-B
Sun 08:14:28 AM 60.0018 12.6180 287° West 460 529 34,000  Level FlightAware ADS-B
Sun 08:14:58 AM 60.0209 12.4950 286° West 460 529 34,000  Level FlightAware ADS-B
Sun 08:15:28 AM 60.0394 12.3712 286° West 463 533 34,000  Level FlightAware ADS-B
Sun 08:15:58 AM 60.0570 12.2508 286° West 463 533 34,000  Level FlightAware ADS-B
Sun 08:16:30 AM 60.0757 12.1210 286° West 464 534 34,000  Level FlightAware ADS-B
Sun 08:17:00 AM 60.0938 11.9945 286° West 464 534 34,000  Level FlightAware ADS-B
Sun 08:17:45 AM 60.1203 11.8081 285° West 462 532 34,000 Level FlightAware ADS-B
Sun 08:20:00 AM 60.1902 11.2908 285° West  Level Estimated
Sun 08:21:00 AM 60.2207 11.0602 285° West  Level Estimated
Sun 08:22:00 AM 60.2507 10.8292 285° West  Level Estimated
Sun 08:23:00 AM 60.2803 10.5977 285° West  Level Estimated
Sun 08:24:00 AM 60.3096 10.3658 284° West  Level Estimated
Sun 08:25:00 AM 60.3384 10.1335 284° West  Level Estimated
Sun 08:26:00 AM 60.3668 9.9008 284° West  Level Estimated
Sun 08:27:00 AM 60.3948 9.6677 284° West  Level Estimated
Sun 08:28:00 AM 60.4224 9.4342 284° West  Level Estimated
Sun 08:29:00 AM 60.4496 9.2003 283° West  Level Estimated
Sun 08:30:00 AM 60.4764 8.9660 283° West  Level Estimated
Sun 08:31:00 AM 60.5028 8.7313 283° West  Level Estimated
Sun 08:32:00 AM 60.5287 8.4963 283° West  Level Estimated
Sun 08:33:00 AM 60.5543 8.2609 283° West  Level Estimated
Sun 08:34:00 AM 60.5794 8.0251 282° West  Level Estimated
Sun 08:35:00 AM 60.6041 7.7889 282° West  Level Estimated
Sun 08:36:00 AM 60.6284 7.5524 282° West  Level Estimated
Sun 08:37:00 AM 60.6523 7.3155 282° West  Level Estimated
Sun 08:38:00 AM 60.6758 7.0783 282° West  Level Estimated
Sun 08:39:00 AM 60.6988 6.8408 281° West  Level Estimated
Sun 08:40:00 AM 60.7214 6.6028 281° West  Level Estimated
Sun 08:41:00 AM 60.7436 6.3646 281° West  Level Estimated
Sun 08:42:00 AM 60.7654 6.1261 281° West  Level Estimated
Sun 08:43:00 AM 60.7867 5.8872 280° West  Level Estimated
Sun 08:44:00 AM 60.8077 5.6480 280° West  Level Estimated
Sun 08:45:00 AM 60.8282 5.4085 280° West  Level Estimated
Sun 08:46:00 AM 60.8482 5.1687 280° West  Level Estimated
Sun 08:47:00 AM 60.8679 4.9286 280° West  Level Estimated
Sun 08:48:00 AM 60.8871 4.6882 279° West  Level Estimated
Sun 08:49:00 AM 60.9059 4.4475 279° West  Level Estimated
Sun 08:50:00 AM 60.9242 4.2065 279° West  Level Estimated
Sun 08:51:00 AM 60.9422 3.9653 279° West  Level Estimated
Sun 08:52:00 AM 60.9597 3.7238 279° West  Level Estimated
Sun 08:53:00 AM 60.9767 3.4820 278° West  Level Estimated
Sun 08:54:00 AM 60.9934 3.2400 278° West  Level Estimated
Sun 08:55:00 AM 61.0095 2.9977 278° West  Level Estimated
Sun 08:56:00 AM 61.0253 2.7552 278° West  Level Estimated
Sun 08:57:00 AM 61.0406 2.5124 278° West  Level Estimated
Sun 08:58:00 AM 61.0555 2.2694 277° West  Level Estimated
Sun 08:59:00 AM 61.0700 2.0262 277° West  Level Estimated
Sun 09:00:00 AM 61.0840 1.7828 277° West  Level Estimated
Sun 09:01:00 AM 61.0976 1.5391 277° West  Level Estimated
Sun 09:02:00 AM 61.1107 1.2953 276° West  Level Estimated
Sun 09:03:00 AM 61.1234 1.0512 276° West  Level Estimated
Sun 09:04:00 AM 61.1357 0.8070 276° West  Level Estimated
Sun 09:05:00 AM 61.1475 0.5626 276° West  Level Estimated
Sun 09:06:00 AM 61.1589 0.3179 276° West  Level Estimated
Sun 09:07:00 AM 61.1698 0.0732 275° West  Level Estimated
Sun 09:08:00 AM 61.1803 -0.1718 275° West  Level Estimated
Sun 09:09:00 AM 61.1903 -0.4169 275° West  Level Estimated
Sun 09:10:00 AM 61.2000 -0.6622 275° West  Level Estimated
Sun 09:11:00 AM 61.2091 -0.9076 275° West  Level Estimated
Sun 09:12:00 AM 61.2178 -1.1531 274° West  Level Estimated
Sun 09:13:00 AM 61.2261 -1.3988 274° West  Level Estimated
Sun 09:14:00 AM 61.2340 -1.6446 274° West  Level Estimated
Sun 09:15:00 AM 61.2413 -1.8905 274° West  Level Estimated
Sun 09:16:00 AM 61.2483 -2.1366 273° West  Level Estimated
Sun 09:17:00 AM 61.2548 -2.3827 273° West  Level Estimated
Sun 09:18:00 AM 61.2608 -2.6290 273° West  Level Estimated
Sun 09:19:00 AM 61.2664 -2.8753 273° West  Level Estimated
Sun 09:20:00 AM 61.2716 -3.1217 273° West  Level Estimated
Sun 09:21:00 AM 61.2763 -3.3682 272° West  Level Estimated
Sun 09:22:00 AM 61.2806 -3.6148 272° West  Level Estimated
Sun 09:23:00 AM 61.2844 -3.8614 272° West  Level Estimated
Sun 09:24:00 AM 61.2877 -4.1081 272° West  Level Estimated
Sun 09:25:00 AM 61.2907 -4.3548 272° West  Level Estimated
Sun 09:26:00 AM 61.2931 -4.6016 271° West  Level Estimated
Sun 09:27:00 AM 61.2952 -4.8484 271° West  Level Estimated
Sun 09:28:00 AM 61.2967 -5.0953 271° West  Level Estimated
Sun 09:29:00 AM 61.2979 -5.3421 271° West  Level Estimated
Sun 09:30:00 AM 61.2985 -5.5890 270° West  Level Estimated
Sun 09:31:00 AM 61.2988 -5.8359 270° West  Level Estimated
Sun 09:32:00 AM 61.2986 -6.0827 270° West  Level Estimated
Sun 09:33:00 AM 61.2979 -6.3296 270° West  Level Estimated
Sun 09:34:00 AM 61.2968 -6.5765 270° West  Level Estimated
Sun 09:35:00 AM 61.2952 -6.8233 269° West  Level Estimated
Sun 09:36:00 AM 61.2932 -7.0701 269° West  Level Estimated
Sun 09:37:00 AM 61.2908 -7.3169 269° West  Level Estimated
Sun 09:38:00 AM 61.2879 -7.5637 269° West  Level Estimated
Sun 09:39:00 AM 61.2845 -7.8103 268° West  Level Estimated
Sun 09:40:00 AM 61.2807 -8.0570 268° West  Level Estimated
Sun 09:41:00 AM 61.2765 -8.3035 268° West  Level Estimated
Sun 09:42:00 AM 61.2718 -8.5500 268° West  Level Estimated
Sun 09:43:00 AM 61.2666 -8.7965 268° West  Level Estimated
Sun 09:44:00 AM 61.2611 -9.0428 267° West  Level Estimated
Sun 09:45:00 AM 61.2550 -9.2891 267° West  Level Estimated
Sun 09:46:00 AM 61.2485 -9.5352 267° West  Level Estimated
Sun 09:47:00 AM 61.2416 -9.7812 267° West  Level Estimated
Sun 09:48:00 AM 61.2342 -10.0272 267° West  Level Estimated
Sun 09:49:00 AM 61.2264 -10.2730 266° West  Level Estimated
Sun 09:50:00 AM 61.2182 -10.5187 266° West  Level Estimated
Sun 09:51:00 AM 61.2095 -10.7642 266° West  Level Estimated
Sun 09:52:00 AM 61.2003 -11.0096 266° West  Level Estimated
Sun 09:53:00 AM 61.1907 -11.2549 265° West  Level Estimated
Sun 09:54:00 AM 61.1807 -11.5000 265° West  Level Estimated
Sun 09:55:00 AM 61.1702 -11.7450 265° West  Level Estimated
Sun 09:56:00 AM 61.1593 -11.9898 265° West  Level Estimated
Sun 09:57:00 AM 61.1479 -12.2344 265° West  Level Estimated
Sun 09:58:00 AM 61.1361 -12.4788 264° West  Level Estimated
Sun 09:59:00 AM 61.1239 -12.7231 264° West  Level Estimated
Sun 10:00:00 AM 61.1112 -12.9671 264° West  Level Estimated
Sun 10:01:00 AM 61.0981 -13.2110 264° West  Level Estimated
Sun 10:02:00 AM 61.0845 -13.4546 264° West  Level Estimated
Sun 10:03:00 AM 61.0705 -13.6981 263° West  Level Estimated
Sun 10:04:00 AM 61.0561 -13.9413 263° West  Level Estimated
Sun 10:05:00 AM 61.0412 -14.1843 263° West  Level Estimated
Sun 10:06:00 AM 61.0259 -14.4271 263° West  Level Estimated
Sun 10:07:00 AM 61.0102 -14.6696 262° West  Level Estimated
Sun 10:08:00 AM 60.9940 -14.9119 262° West  Level Estimated
Sun 10:09:00 AM 60.9774 -15.1539 262° West  Level Estimated
Sun 10:10:00 AM 60.9603 -15.3957 262° West  Level Estimated
Sun 10:11:00 AM 60.9428 -15.6372 262° West  Level Estimated
Sun 10:12:00 AM 60.9249 -15.8785 261° West  Level Estimated
Sun 10:13:00 AM 60.9066 -16.1195 261° West  Level Estimated
Sun 10:14:00 AM 60.8878 -16.3602 261° West  Level Estimated
Sun 10:15:00 AM 60.8686 -16.6006 261° West  Level Estimated
Sun 10:16:00 AM 60.8490 -16.8407 261° West  Level Estimated
Sun 10:17:00 AM 60.8289 -17.0805 260° West  Level Estimated
Sun 10:18:00 AM 60.8084 -17.3200 260° West  Level Estimated
Sun 10:19:00 AM 60.7875 -17.5592 260° West  Level Estimated
Sun 10:20:00 AM 60.7662 -17.7981 260° West  Level Estimated
Sun 10:21:00 AM 60.7444 -18.0367 260° West  Level Estimated
Sun 10:22:00 AM 60.7223 -18.2749 259° West  Level Estimated
Sun 10:23:00 AM 60.6997 -18.5128 259° West  Level Estimated
Sun 10:24:00 AM 60.6766 -18.7504 259° West  Level Estimated
Sun 10:25:00 AM 60.6532 -18.9876 259° West  Level Estimated
Sun 10:26:00 AM 60.6293 -19.2245 258° West  Level Estimated
Sun 10:27:00 AM 60.6050 -19.4611 258° West  Level Estimated
Sun 10:28:00 AM 60.5803 -19.6972 258° West  Level Estimated
Sun 10:29:00 AM 60.5552 -19.9330 258° West  Level Estimated
Sun 10:30:00 AM 60.5297 -20.1685 258° West  Level Estimated
Sun 10:31:00 AM 60.5038 -20.4035 257° West  Level Estimated
Sun 10:32:00 AM 60.4774 -20.6382 257° West  Level Estimated
Sun 10:33:00 AM 60.4506 -20.8725 257° West  Level Estimated
Sun 10:34:00 AM 60.4235 -21.1064 257° West  Level Estimated
Sun 10:35:00 AM 60.3959 -21.3400 257° West  Level Estimated
Sun 10:36:00 AM 60.3679 -21.5731 256° West  Level Estimated
Sun 10:37:00 AM 60.3395 -21.8058 256° West  Level Estimated
Sun 10:38:00 AM 60.3107 -22.0381 256° West  Level Estimated
Sun 10:39:00 AM 60.2815 -22.2700 256° West  Level Estimated
Sun 10:40:00 AM 60.2518 -22.5015 256° West  Level Estimated
Sun 10:41:00 AM 60.2218 -22.7325 255° West  Level Estimated
Sun 10:42:00 AM 60.1914 -22.9632 255° West  Level Estimated
Sun 10:43:00 AM 60.1606 -23.1934 255° West  Level Estimated
Sun 10:44:00 AM 60.1294 -23.4231 255° West  Level Estimated
Sun 10:45:00 AM 60.0978 -23.6525 255° West  Level Estimated
Sun 10:46:00 AM 60.0658 -23.8814 254° West  Level Estimated
Sun 10:47:00 AM 60.0333 -24.1098 254° West  Level Estimated
Sun 10:48:00 AM 60.0005 -24.3378 254° West  Level Estimated
Sun 10:49:00 AM 59.9674 -24.5653 254° West  Level Estimated
Sun 10:50:00 AM 59.9338 -24.7924 254° West  Level Estimated
Sun 10:51:00 AM 59.8998 -25.0190 253° West  Level Estimated
Sun 10:52:00 AM 59.8655 -25.2452 253° West  Level Estimated
Sun 10:53:00 AM 59.8307 -25.4709 253° West  Level Estimated
Sun 10:54:00 AM 59.7956 -25.6961 253° West  Level Estimated
Sun 10:55:00 AM 59.7601 -25.9208 253° West  Level Estimated
Sun 10:56:00 AM 59.7242 -26.1451 252° West  Level Estimated
Sun 10:57:00 AM 59.6879 -26.3689 252° West  Level Estimated
Sun 10:58:00 AM 59.6512 -26.5921 252° West  Level Estimated
Sun 10:59:00 AM 59.6142 -26.8149 252° West  Level Estimated
Sun 11:00:00 AM 59.5768 -27.0372 252° West  Level Estimated
Sun 11:01:00 AM 59.5390 -27.2590 252° West  Level Estimated
Sun 11:02:00 AM 59.5008 -27.4803 251° West  Level Estimated
Sun 11:03:00 AM 59.4623 -27.7011 251° West  Level Estimated
Sun 11:04:00 AM 59.4234 -27.9214 251° West  Level Estimated
Sun 11:05:00 AM 59.3841 -28.1412 251° West  Level Estimated
Sun 11:06:00 AM 59.3445 -28.3605 251° West  Level Estimated
Sun 11:07:00 AM 59.3044 -28.5793 250° West  Level Estimated
Sun 11:08:00 AM 59.2640 -28.7975 250° West  Level Estimated
Sun 11:09:00 AM 59.2233 -29.0152 250° West  Level Estimated
Sun 11:10:00 AM 59.1822 -29.2324 250° West  Level Estimated
Sun 11:11:00 AM 59.1407 -29.4491 250° West  Level Estimated
Sun 11:12:00 AM 59.0989 -29.6653 249° West  Level Estimated
Sun 11:13:00 AM 59.0567 -29.8809 249° West  Level Estimated
Sun 11:14:00 AM 59.0142 -30.0960 249° West  Level Estimated
Sun 11:15:00 AM 58.9713 -30.3106 249° West  Level Estimated
Sun 11:16:00 AM 58.9280 -30.5246 249° West  Level Estimated
Sun 11:17:00 AM 58.8844 -30.7381 249° West  Level Estimated
Sun 11:18:00 AM 58.8405 -30.9510 248° West  Level Estimated
Sun 11:19:00 AM 58.7961 -31.1634 248° West  Level Estimated
Sun 11:20:00 AM 58.7515 -31.3753 248° West  Level Estimated
Sun 11:21:00 AM 58.7065 -31.5866 248° West  Level Estimated
Sun 11:22:00 AM 58.6611 -31.7974 248° West  Level Estimated
Sun 11:23:00 AM 58.6155 -32.0076 247° West  Level Estimated
Sun 11:24:00 AM 58.5694 -32.2173 247° West  Level Estimated
Sun 11:25:00 AM 58.5230 -32.4264 247° West  Level Estimated
Sun 11:26:00 AM 58.4763 -32.6350 247° West  Level Estimated
Sun 11:27:00 AM 58.4293 -32.8430 247° West  Level Estimated
Sun 11:28:00 AM 58.3819 -33.0504 247° West  Level Estimated
Sun 11:29:00 AM 58.3342 -33.2573 246° West  Level Estimated
Sun 11:30:00 AM 58.2861 -33.4636 246° West  Level Estimated
Sun 11:31:00 AM 58.2377 -33.6694 246° West  Level Estimated
Sun 11:32:00 AM 58.1890 -33.8746 246° West  Level Estimated
Sun 11:33:00 AM 58.1400 -34.0793 246° West  Level Estimated
Sun 11:34:00 AM 58.0906 -34.2833 245° Southwest  Level Estimated
Sun 11:35:00 AM 58.0409 -34.4869 245° Southwest  Level Estimated
Sun 11:36:00 AM 57.9909 -34.6898 245° Southwest  Level Estimated
Sun 11:37:00 AM 57.9406 -34.8922 245° Southwest  Level Estimated
Sun 11:38:00 AM 57.8899 -35.0940 245° Southwest  Level Estimated
Sun 11:39:00 AM 57.8389 -35.2952 245° Southwest  Level Estimated
Sun 11:40:00 AM 57.7876 -35.4959 244° Southwest  Level Estimated
Sun 11:41:00 AM 57.7360 -35.6960 244° Southwest  Level Estimated
Sun 11:42:00 AM 57.6841 -35.8955 244° Southwest  Level Estimated
Sun 11:43:00 AM 57.6318 -36.0945 244° Southwest  Level Estimated
Sun 11:44:00 AM 57.5793 -36.2929 244° Southwest  Level Estimated
Sun 11:45:00 AM 57.5264 -36.4907 244° Southwest  Level Estimated
Sun 11:46:00 AM 57.4733 -36.6879 243° Southwest  Level Estimated
Sun 11:47:00 AM 57.4198 -36.8846 243° Southwest  Level Estimated
Sun 11:48:00 AM 57.3660 -37.0806 243° Southwest  Level Estimated
Sun 11:49:00 AM 57.3119 -37.2761 243° Southwest  Level Estimated
Sun 11:50:00 AM 57.2575 -37.4711 243° Southwest  Level Estimated
Sun 11:51:00 AM 57.2028 -37.6654 243° Southwest  Level Estimated
Sun 11:52:00 AM 57.1478 -37.8592 242° Southwest  Level Estimated
Sun 11:53:00 AM 57.0925 -38.0524 242° Southwest  Level Estimated
Sun 11:54:00 AM 57.0370 -38.2450 242° Southwest  Level Estimated
Sun 11:55:00 AM 56.9811 -38.4371 242° Southwest  Level Estimated
Sun 11:56:00 AM 56.9249 -38.6286 242° Southwest  Level Estimated
Sun 11:57:00 AM 56.8685 -38.8195 242° Southwest  Level Estimated
Sun 11:58:00 AM 56.8117 -39.0098 241° Southwest  Level Estimated
Sun 11:59:00 AM 56.7547 -39.1995 241° Southwest  Level Estimated
Sun 12:00:00 PM 56.6973 -39.3887 241° Southwest  Level Estimated
Sun 12:01:00 PM 56.6397 -39.5773 241° Southwest  Level Estimated
Sun 12:02:00 PM 56.5818 -39.7653 241° Southwest  Level Estimated
Sun 12:03:00 PM 56.5236 -39.9527 241° Southwest  Level Estimated
Sun 12:04:00 PM 56.4652 -40.1395 241° Southwest  Level Estimated
Sun 12:05:00 PM 56.4064 -40.3258 240° Southwest  Level Estimated
Sun 12:06:00 PM 56.3474 -40.5115 240° Southwest  Level Estimated
Sun 12:07:00 PM 56.2881 -40.6967 240° Southwest  Level Estimated
Sun 12:08:00 PM 56.2285 -40.8812 240° Southwest  Level Estimated
Sun 12:09:00 PM 56.1687 -41.0652 240° Southwest  Level Estimated
Sun 12:10:00 PM 56.1086 -41.2486 240° Southwest  Level Estimated
Sun 12:11:00 PM 56.0482 -41.4314 239° Southwest  Level Estimated
Sun 12:12:00 PM 55.9875 -41.6137 239° Southwest  Level Estimated
Sun 12:12:31 PM 63.1500 -54.8667 239° Southwest 320 368 36,000  Level Gander Center
Sun 12:13:00 PM 55.9266 -41.7954 239° Southwest  Level Estimated
Sun 12:13:31 PM 63.1000 -55.0833 243° Southwest 430 495 36,000  Level Gander Center
Sun 12:14:00 PM 55.8654 -41.9765 239° Southwest  Level Estimated
Sun 12:15:00 PM 55.8039 -42.1571 239° Southwest  Level Estimated
Sun 12:15:42 PM 63.0000 -55.6667 250° West 450 518 36,000  Level Gander Center
Sun 12:16:00 PM 55.7413 -42.3395 239° Southwest  Level Estimated
Sun 12:16:31 PM 62.9167 -55.8500 225° Southwest 460 529 36,000  Level Gander Center
Sun 12:17:00 PM 55.6785 -42.5214 239° Southwest  Level Estimated
Sun 12:17:31 PM 62.8833 -56.0833 253° West 460 529 36,000  Level Gander Center
Sun 12:18:31 PM 62.7833 -56.3167 227° Southwest 460 529 36,000  Level Gander Center
Sun 12:19:31 PM 62.7500 -56.5333 252° West 450 518 36,000  Level Gander Center
Sun 12:20:31 PM 62.6500 -56.7667 227° Southwest 450 518 36,000  Level Gander Center
Sun 12:21:31 PM 62.6000 -57.0000 245° Southwest 460 529 36,000  Level Gander Center
Sun 12:22:31 PM 62.5333 -57.2167 236° Southwest 440 506 36,000  Level Gander Center
Sun 12:23:31 PM 62.4500 -57.4500 232° Southwest 460 529 36,000  Level Gander Center
Sun 12:24:31 PM 62.3833 -57.6667 236° Southwest 460 529 36,000  Level Gander Center
Sun 12:25:31 PM 62.3167 -57.9000 238° Southwest 450 518 36,000  Level Gander Center
Sun 12:26:31 PM 62.2333 -58.1167 231° Southwest 460 529 36,000  Level Gander Center
Sun 12:28:31 PM 62.1000 -58.5500 235° Southwest 460 529 36,000  Level Gander Center
Sun 12:29:31 PM 62.0333 -58.7667 237° Southwest 450 518 36,000  Level Gander Center
Sun 12:30:31 PM 61.9667 -58.9833 237° Southwest 460 529 36,000  Level Gander Center
Sun 12:31:31 PM 61.9000 -59.2000 237° Southwest 450 518 36,000  Level Gander Center
Sun 12:32:31 PM 61.8167 -59.4167 231° Southwest 450 518 36,000  Level Gander Center
Sun 12:33:31 PM 61.7333 -59.6667 235° Southwest 440 506 36,000  Level Gander Center
Sun 12:34:31 PM 61.6500 -59.8833 231° Southwest 450 518 36,000  Level Gander Center
Sun 12:35:31 PM 61.5833 -60.1000 237° Southwest 440 506 36,000  Level Gander Center
Sun 12:36:31 PM 61.5167 -60.3000 235° Southwest 430 495 36,000  Level Gander Center
Sun 12:37:31 PM 61.4500 -60.5167 237° Southwest 450 518 36,000  Level Gander Center
Sun 12:38:31 PM 61.3667 -60.7333 231° Southwest 450 518 36,000  Level Gander Center
Sun 12:39:31 PM 61.3000 -60.9333 235° Southwest 450 518 36,000  Level Gander Center
Sun 12:40:31 PM 61.2333 -61.1167 233° Southwest 440 506 36,000  Level Gander Center
Sun 12:41:31 PM 61.1500 -61.3167 229° Southwest 440 506 36,000  Level Gander Center
Sun 12:42:31 PM 61.0833 -61.5167 235° Southwest 440 506 36,000  Level Gander Center
Sun 12:43:31 PM 61.0000 -61.7333 232° Southwest 450 518 36,000  Level Gander Center
Sun 12:44:31 PM 60.9333 -61.9333 236° Southwest 450 518 36,000  Level Gander Center
Sun 12:45:31 PM 60.8500 -62.1333 230° Southwest 450 518 36,000  Level Gander Center
Sun 12:46:31 PM 60.7833 -62.3333 236° Southwest 450 518 36,000  Level Gander Center
Sun 12:47:31 PM 60.6833 -62.5333 224° Southwest 450 518 36,000 -150 Level Gander Center
Sun 12:48:31 PM 60.6000 -62.7000 225° Southwest 450 518 35,700 -400 Descending Gander Center
Sun 12:49:31 PM 60.5000 -62.8667 219° Southwest 450 518 35,200 -650 Descending Gander Center
Sun 12:50:31 PM 60.4000 -63.0333 219° Southwest 440 506 34,400 -600 Descending Gander Center
Sun 12:51:31 PM 60.3167 -63.2000 225° Southwest 450 518 34,000 -200 Descending Gander Center
Sun 12:52:31 PM 60.2167 -63.3500 217° Southwest 450 518 34,000  Level Gander Center
Sun 12:53:31 PM 60.1167 -63.5167 220° Southwest 450 518 34,000  Level Gander Center
Sun 12:54:31 PM 60.0333 -63.6833 225° Southwest 450 518 34,000  Level Gander Center
Sun 12:55:31 PM 59.9500 -63.8333 222° Southwest 450 518 34,000  Level Gander Center
Sun 12:56:31 PM 59.8333 -64.0000 216° Southwest 440 506 34,000  Level Gander Center
Sun 12:57:31 PM 59.7500 -64.1500 222° Southwest 450 518 34,000  Level Gander Center
Sun 12:58:31 PM 59.6667 -64.3167 225° Southwest 440 506 34,000  Level Gander Center
Sun 12:59:31 PM 59.5667 -64.4667 217° Southwest 440 506 34,000  Level Gander Center
Sun 01:00:31 PM 59.4833 -64.6333 225° Southwest 440 506 34,000  Level Gander Center
Sun 01:01:31 PM 59.3667 -64.7833 213° Southwest 440 506 34,000  Level Gander Center
Sun 01:02:31 PM 59.2833 -64.9333 223° Southwest 440 506 34,000  Level Gander Center
Sun 01:03:31 PM 59.2000 -65.0833 223° Southwest 440 506 34,000  Level Gander Center
Sun 01:04:31 PM 59.1000 -65.2333 218° Southwest 440 506 34,000  Level Gander Center
Sun 01:05:31 PM 59.0000 -65.3833 218° Southwest 440 506 34,000  Level Gander Center
Sun 01:06:31 PM 58.9000 -65.5333 218° Southwest 440 506 34,000  Level Gander Center
Sun 01:07:31 PM 58.8167 -65.6833 223° Southwest 440 506 34,000  Level Gander Center
Sun 01:08:31 PM 58.7167 -65.8000 211° Southwest 440 506 34,000  Level Gander Center
Sun 01:09:31 PM 58.6167 -65.9500 218° Southwest 440 506 34,000  Level Gander Center
Sun 01:10:31 PM 58.5167 -66.1000 218° Southwest 430 495 34,000  Level Gander Center
Sun 01:11:31 PM 58.4333 -66.2167 216° Southwest 440 506 34,000  Level Gander Center
Sun 01:12:31 PM 58.3167 -66.3667 214° Southwest 440 506 34,000  Level Gander Center
Sun 01:13:31 PM 58.2333 -66.5167 223° Southwest 430 495 34,000  Level Gander Center
Sun 01:14:31 PM 58.1333 -66.6500 215° Southwest 430 495 34,000  Level Gander Center
Sun 01:15:31 PM 58.0333 -66.8000 218° Southwest 430 495 34,000  Level Gander Center
Sun 01:16:31 PM 57.9333 -66.9000 208° Southwest 440 506 34,000  Level Gander Center
Sun 01:17:31 PM 57.8500 -67.0500 224° Southwest 440 506 34,000  Level Gander Center
Sun 01:18:31 PM 57.7333 -67.1833 211° Southwest 440 506 34,000  Level Gander Center
Sun 01:19:31 PM 57.6500 -67.3333 224° Southwest 440 506 34,000  Level Gander Center
Sun 01:20:31 PM 57.5667 -67.4500 217° Southwest 430 495 34,000  Level Gander Center
Sun 01:21:31 PM 57.4500 -67.5833 212° Southwest 430 495 34,000  Level Gander Center
Sun 01:22:31 PM 57.3667 -67.7167 221° Southwest 430 495 34,000  Level Gander Center
Sun 01:23:31 PM 57.2500 -67.8333 208° Southwest 430 495 34,000  Level Gander Center
Sun 01:24:31 PM 57.1667 -67.9667 221° Southwest 430 495 34,000  Level Gander Center
Sun 01:25:31 PM 57.0667 -68.1000 216° Southwest 430 495 34,000  Level Gander Center
Sun 01:26:31 PM 56.9667 -68.2333 216° Southwest 430 495 34,000  Level Gander Center
Sun 01:27:31 PM 56.8833 -68.3500 217° Southwest 430 495 34,000  Level Gander Center
Sun 01:28:31 PM 56.7667 -68.4833 212° Southwest 430 495 34,000  Level Gander Center
Sun 01:29:31 PM 56.6833 -68.5833 213° Southwest 430 495 34,000  Level Gander Center
Sun 01:30:31 PM 56.5667 -68.7500 218° Southwest 430 495 34,000  Level Gander Center
Sun 01:31:31 PM 56.4833 -68.8500 214° Southwest 430 495 34,000  Level Gander Center
Sun 01:32:31 PM 56.3833 -68.9833 216° Southwest 430 495 34,000  Level Gander Center
Sun 01:33:31 PM 56.2833 -69.0833 209° Southwest 430 495 34,000  Level Gander Center
Sun 01:34:31 PM 56.1833 -69.2167 217° Southwest 430 495 34,000  Level Gander Center
Sun 01:35:31 PM 56.1000 -69.3500 222° Southwest 430 495 34,000  Level Gander Center
Sun 01:36:31 PM 55.9833 -69.4500 206° Southwest 430 495 34,000  Level Gander Center
Sun 01:37:31 PM 55.9000 -69.5667 218° Southwest 430 495 34,000  Level Gander Center
Sun 01:38:31 PM 55.7833 -69.7000 213° Southwest 430 495 34,000  Level Gander Center
Sun 01:39:31 PM 55.7000 -69.8000 214° Southwest 430 495 34,000  Level Gander Center
Sun 01:40:31 PM 55.6000 -69.9333 217° Southwest 420 483 34,000  Level Gander Center
Sun 01:41:31 PM 55.5000 -70.0333 210° Southwest 420 483 34,000  Level Gander Center
Sun 01:42:31 PM 55.4000 -70.1500 214° Southwest 420 483 34,000  Level Gander Center
Sun 01:43:31 PM 55.3167 -70.2833 222° Southwest 420 483 34,000  Level Gander Center
Sun 01:44:31 PM 55.2000 -70.3667 202° Southwest 420 483 34,000  Level Gander Center
Sun 01:45:31 PM 55.1167 -70.5000 222° Southwest 420 483 34,000  Level Gander Center
Sun 01:46:31 PM 55.0167 -70.6000 210° Southwest 420 483 34,000  Level Gander Center
Sun 01:47:31 PM 54.9167 -70.7167 214° Southwest 420 483 34,000  Level Gander Center
Sun 01:48:31 PM 54.8167 -70.8500 218° Southwest 420 483 34,000  Level Gander Center
Sun 01:49:31 PM 54.7167 -70.9333 206° Southwest 420 483 34,000  Level Gander Center
Sun 01:50:31 PM 54.6333 -71.0667 223° Southwest 420 483 34,000  Level Gander Center
Sun 01:51:31 PM 54.5167 -71.1500 203° Southwest 420 483 34,000  Level Gander Center
Sun 01:52:31 PM 54.4333 -71.2667 219° Southwest 420 483 34,000  Level Gander Center
Sun 01:53:31 PM 54.3333 -71.4000 218° Southwest 420 483 34,000  Level Gander Center
Sun 01:54:31 PM 54.2333 -71.4833 206° Southwest 420 483 34,000  Level Gander Center
Sun 01:55:31 PM 54.1333 -71.6000 214° Southwest 420 483 34,000  Level Gander Center
Sun 01:56:31 PM 54.0333 -71.7000 210° Southwest 420 483 34,000  Level Gander Center
Sun 01:57:31 PM 53.9500 -71.8167 220° Southwest 420 483 34,000  Level Gander Center
Sun 01:58:31 PM 53.8333 -71.9000 203° Southwest 420 483 34,000  Level Gander Center
Sun 01:59:31 PM 53.7500 -72.0167 220° Southwest 420 483 34,000  Level Gander Center
Sun 02:00:31 PM 53.6500 -72.1167 211° Southwest 420 483 34,000  Level Gander Center
Sun 02:01:31 PM 53.5333 -72.2333 211° Southwest 420 483 34,000  Level Gander Center
Sun 02:02:31 PM 53.4500 -72.3167 211° Southwest 420 483 34,000  Level Gander Center
Sun 02:03:31 PM 53.3500 -72.4333 215° Southwest 420 483 34,000  Level Gander Center
Sun 02:04:31 PM 53.2333 -72.5500 211° Southwest 420 483 34,000  Level Gander Center
Sun 02:05:31 PM 53.1500 -72.6333 211° Southwest 420 483 34,000  Level Gander Center
Sun 02:06:31 PM 53.0500 -72.7500 215° Southwest 420 483 34,000  Level Gander Center
Sun 02:07:31 PM 52.9500 -72.8333 207° Southwest 420 483 34,000  Level Gander Center
Sun 02:08:31 PM 52.8500 -72.9500 215° Southwest 420 483 34,000  Level Gander Center
Sun 02:09:31 PM 52.7500 -73.0333 207° Southwest 420 483 34,000  Level Gander Center
Sun 02:10:31 PM 52.6333 -73.1333 207° Southwest 420 483 34,000  Level Gander Center
Sun 02:11:31 PM 52.5500 -73.2500 220° Southwest 420 483 34,000  Level Gander Center
Sun 02:12:31 PM 52.4500 -73.3333 207° Southwest 420 483 34,000  Level Gander Center
Sun 02:13:31 PM 52.3500 -73.4500 215° Southwest 420 483 34,000  Level Gander Center
Sun 02:14:31 PM 52.2500 -73.5333 207° Southwest 420 483 34,000  Level Gander Center
Sun 02:15:31 PM 52.1500 -73.6333 212° Southwest 420 483 34,000  Level Gander Center
Sun 02:16:31 PM 52.0500 -73.7167 207° Southwest 420 483 34,000  Level Gander Center
Sun 02:17:31 PM 51.9500 -73.8333 216° Southwest 420 483 34,000  Level Gander Center
Sun 02:18:31 PM 51.8500 -73.9333 212° Southwest 420 483 34,000  Level Gander Center
Sun 02:19:31 PM 51.7333 -74.0167 204° Southwest 420 483 34,000  Level Gander Center
Sun 02:20:31 PM 51.6500 -74.1333 221° Southwest 420 483 34,000  Level Gander Center
Sun 02:21:31 PM 51.5500 -74.2167 207° Southwest 420 483 34,000  Level Gander Center
Sun 02:22:31 PM 51.4333 -74.3167 208° Southwest 420 483 34,000  Level Gander Center
Sun 02:23:31 PM 51.3500 -74.4000 212° Southwest 420 483 34,000  Level Gander Center
Sun 02:24:46 PM 51.2333 -74.4833 204° Southwest 410 472 34,000  Level Montreal Center
Sun 02:25:46 PM 51.1333 -74.5667 208° Southwest 410 472 34,000  Level Montreal Center
Sun 02:26:46 PM 51.0333 -74.6500 208° Southwest 410 472 34,000  Level Montreal Center
Sun 02:27:46 PM 50.9333 -74.7667 216° Southwest 410 472 34,000  Level Montreal Center
Sun 02:28:46 PM 50.8333 -74.8500 208° Southwest 410 472 34,000  Level Montreal Center
Sun 02:29:46 PM 50.7333 -74.9333 208° Southwest 410 472 34,000  Level Montreal Center
Sun 02:30:46 PM 50.6333 -75.0333 212° Southwest 410 472 34,000  Level Montreal Center
Sun 02:31:46 PM 50.5333 -75.1167 208° Southwest 410 472 34,000  Level Montreal Center
Sun 02:32:46 PM 50.4333 -75.2000 208° Southwest 410 472 34,000  Level Montreal Center
Sun 02:33:46 PM 50.3333 -75.2833 208° Southwest 410 472 34,000  Level Montreal Center
Sun 02:34:46 PM 50.2333 -75.3833 213° Southwest 410 472 34,000  Level Montreal Center
Sun 02:35:46 PM 50.1500 -75.4667 213° Southwest 410 472 34,000  Level Montreal Center
Sun 02:36:46 PM 50.0167 -75.5500 202° Southwest 410 472 34,000  Level Montreal Center
Sun 02:37:46 PM 49.9333 -75.6500 218° Southwest 410 472 34,000  Level Montreal Center
Sun 02:38:46 PM 49.8167 -75.7333 205° Southwest 410 472 34,000  Level Montreal Center
Sun 02:39:46 PM 49.7333 -75.8167 213° Southwest 410 472 34,000  Level Montreal Center
Sun 02:40:46 PM 49.6167 -75.9167 209° Southwest 410 472 34,000  Level Montreal Center
Sun 02:41:46 PM 49.5333 -76.0000 213° Southwest 410 472 34,000  Level Montreal Center
Sun 02:42:46 PM 49.4333 -76.0667 203° Southwest 410 472 34,000  Level Montreal Center
Sun 02:43:46 PM 49.3333 -76.1667 213° Southwest 420 483 34,000  Level Montreal Center
Sun 02:44:46 PM 49.2333 -76.2500 209° Southwest 420 483 34,000  Level Montreal Center
Sun 02:46:46 PM 49.0167 -76.4333 209° Southwest 420 483 34,000  Level Montreal Center
Sun 02:47:46 PM 48.9167 -76.5000 204° Southwest 420 483 34,000  Level Montreal Center
Sun 02:48:46 PM 48.8167 -76.5833 209° Southwest 420 483 34,000  Level Montreal Center
Sun 02:49:46 PM 48.7167 -76.6833 213° Southwest 420 483 34,000  Level Montreal Center
Sun 02:50:46 PM 48.6167 -76.7500 204° Southwest 410 472 34,000  Level Montreal Center
Sun 02:51:46 PM 48.5167 -76.8333 209° Southwest 410 472 34,000  Level Montreal Center
Sun 02:52:46 PM 48.4000 -76.9333 210° Southwest 420 483 34,000  Level Montreal Center
Sun 02:53:46 PM 48.3000 -77.0000 204° Southwest 420 483 34,000  Level Montreal Center
Sun 02:54:46 PM 48.2000 -77.1000 214° Southwest 420 483 34,000  Level Montreal Center
Sun 02:55:46 PM 48.1000 -77.1667 204° Southwest 420 483 34,000  Level Montreal Center
Sun 02:56:46 PM 47.9833 -77.2667 210° Southwest 420 483 34,000  Level Montreal Center
Sun 02:57:46 PM 47.8833 -77.3500 209° Southwest 420 483 34,000  Level Montreal Center
Sun 02:58:46 PM 47.7833 -77.4167 204° Southwest 420 483 34,000  Level Montreal Center
Sun 02:59:46 PM 47.6833 -77.5167 214° Southwest 420 483 34,000  Level Montreal Center
Sun 03:00:46 PM 47.5833 -77.5833 204° Southwest 420 483 34,000  Level Montreal Center
Sun 03:01:46 PM 47.4833 -77.6833 214° Southwest 420 483 34,000  Level Montreal Center
Sun 03:02:46 PM 47.3667 -77.7500 201° Southwest 420 483 34,000  Level Montreal Center
Sun 03:03:46 PM 47.2667 -77.8167 204° Southwest 420 483 34,000  Level Montreal Center
Sun 03:04:46 PM 47.1667 -77.9167 214° Southwest 420 483 34,000  Level Montreal Center
Sun 03:05:46 PM 47.0500 -77.9833 201° Southwest 420 483 34,000  Level Montreal Center
Sun 03:06:46 PM 46.9500 -78.0833 214° Southwest 430 495 34,000  Level Montreal Center
Sun 03:07:40 PM 46.8500 -78.1167 193° South 430 495 34,000  Level Toronto Center
Sun 03:13:32 PM 46.2320 -78.6152 208° Southwest 436 502 34,000  Level FlightAware ADS-B (CYYZ)
Sun 03:14:02 PM 46.1767 -78.6560 208° Southwest 438 504 34,000  Level FlightAware ADS-B (CYYZ)
Sun 03:14:32 PM 46.1297 -78.6905 208° Southwest 439 505 34,000  Level FlightAware ADS-B (CYYZ)
Sun 03:15:02 PM 46.0685 -78.7354 208° Southwest 440 506 34,000  Level FlightAware ADS-B (CYYZ)
Sun 03:15:32 PM 46.0176 -78.7726 207° Southwest 440 506 34,000  Level FlightAware ADS-B (CYYZ)
Sun 03:16:02 PM 45.9664 -78.8100 207° Southwest 440 506 34,000  Level FlightAware ADS-B (CYYZ)
Sun 03:16:32 PM 45.9046 -78.8551 207° Southwest 439 505 34,000  Level FlightAware ADS-B (CYYZ)
Sun 03:17:02 PM 45.8508 -78.8943 207° Southwest 440 506 34,000  Level FlightAware ADS-B (CYYZ)
Sun 03:17:32 PM 45.7945 -78.9352 207° Southwest 441 507 34,000  Level FlightAware ADS-B (CYYZ)
Sun 03:18:03 PM 45.7397 -78.9749 207° Southwest 443 510 34,000  Level FlightAware ADS-B (CYYZ)
Sun 03:18:32 PM 45.6891 -79.0114 207° Southwest 445 512 34,000  Level FlightAware ADS-B (CYYZ)
Sun 03:19:02 PM 45.6313 -79.0531 207° Southwest 446 513 34,000  Level FlightAware ADS-B (CYYZ)
Sun 03:19:33 PM 45.5745 -79.0939 207° Southwest 446 513 34,000  Level FlightAware ADS-B (CYYZ)
Sun 03:20:02 PM 45.5221 -79.1315 207° Southwest 447 514 34,000  Level FlightAware ADS-B (CYYZ)
Sun 03:20:32 PM 45.4640 -79.1731 207° Southwest 448 516 34,000  Level FlightAware ADS-B (CYYZ)
Sun 03:21:02 PM 45.4136 -79.2092 207° Southwest 448 516 34,000  Level FlightAware ADS-B (CYYZ)
Sun 03:21:32 PM 45.3579 -79.2489 207° Southwest 447 514 34,000  Level FlightAware ADS-B (CYYZ)
Sun 03:22:02 PM 45.2991 -79.2908 207° Southwest 448 516 34,000  Level FlightAware ADS-B (CYYZ)
Sun 03:22:32 PM 45.2422 -79.3312 207° Southwest 448 516 34,000  Level FlightAware ADS-B (CYYZ)
Sun 03:23:02 PM 45.1871 -79.3702 207° Southwest 449 517 34,000  Level FlightAware ADS-B (CYYZ)
Sun 03:23:31 PM 45.1362 -79.4062 207° Southwest 451 519 34,000  Level FlightAware ADS-B (CYYZ)
Sun 03:24:02 PM 45.0740 -79.4501 207° Southwest 452 520 34,000  Level FlightAware ADS-B (CYYZ)
Sun 03:24:30 PM 45.0389 -79.4748 207° Southwest 452 520 34,000  Level FlightAware ADS-B (CYYZ)
Sun 03:25:02 PM 44.9641 -79.5273 207° Southwest 452 520 34,000  Level FlightAware ADS-B (CYYZ)
Sun 03:25:30 PM 44.9137 -79.5625 207° Southwest 452 520 34,000  Level FlightAware ADS-B (CYYZ)
Sun 03:26:02 PM 44.8618 -79.5989 207° Southwest 454 522 34,000  Level FlightAware ADS-B (CYYZ)
Sun 03:26:32 PM 44.7948 -79.6456 207° Southwest 455 524 34,000  Level FlightAware ADS-B (CYYZ)
Sun 03:27:02 PM 44.7360 -79.6864 207° Southwest 455 524 34,000  Level FlightAware ADS-B (CYYZ)
Sun 03:27:32 PM 44.6797 -79.7256 207° Southwest 455 524 34,000  Level FlightAware ADS-B (CYYZ)
Sun 03:28:02 PM 44.6259 -79.7629 207° Southwest 454 522 34,000  Level FlightAware ADS-B (CYYZ)
Sun 03:28:37 PM 44.5580 -79.8136 211° Southwest 454 522 34,000  Level FlightAware ADS-B (CYYZ)
Sun 03:29:18 PM 44.4885 -79.8766 214° Southwest 454 522 34,000  Level FlightAware ADS-B (CYYZ)
Sun 03:29:47 PM 44.4364 -79.9243 213° Southwest 454 522 34,000  Level FlightAware ADS-B (CYYZ)
Sun 03:30:42 PM 44.3341 -80.0046 209° Southwest 458 527 34,000  Level FlightAware ADS-B (CYYZ)
Sun 03:31:12 PM 44.2789 -80.0477 210° Southwest 458 527 34,000  Level FlightAware ADS-B (CYYZ)
Sun 03:31:42 PM 44.2229 -80.0917 210° Southwest 459 528 34,000  Level FlightAware ADS-B (CYYZ)
Sun 03:32:13 PM 44.1673 -80.1355 210° Southwest 459 528 34,000  Level FlightAware ADS-B (CYYZ)
Sun 03:32:43 PM 44.1125 -80.1786 210° Southwest 459 528 34,000  Level FlightAware ADS-B (CYYZ)
Sun 03:33:12 PM 44.0572 -80.2219 210° Southwest 460 529 34,000  Level FlightAware ADS-B (CYYZ)
Sun 03:33:42 PM 44.0009 -80.2659 210° Southwest 461 531 34,000  Level FlightAware ADS-B (CYYZ)
Sun 03:34:12 PM 43.9471 -80.3078 210° Southwest 460 529 34,000  Level FlightAware ADS-B (CYYZ)
Sun 03:34:42 PM 43.8945 -80.3488 210° Southwest 458 527 34,000  Level FlightAware ADS-B (CYYZ)
Sun 03:35:06 PM 43.8511 -80.3825 209° Southwest 459 528 34,000  Level FlightAware ADS-B (CYKF)
Sun 03:35:12 PM 43.8404 -80.3908 210° Southwest 458 527 34,000  Level FlightAware ADS-B (CYYZ)
Sun 03:35:41 PM 43.7853 -80.4335 210° Southwest 458 527 34,000  Level FlightAware ADS-B (CYYZ)
Sun 03:36:12 PM 43.7268 -80.4789 210° Southwest 459 528 34,000  Level FlightAware ADS-B (CYYZ)
Sun 03:36:40 PM 43.6778 -80.5167 210° Southwest 459 528 34,000  Level FlightAware ADS-B (CYYZ)
Sun 03:37:13 PM 43.6134 -80.5664 210° Southwest 459 528 34,000  Level FlightAware ADS-B (CYYZ)
Sun 03:37:41 PM 43.5583 -80.6088 210° Southwest 461 531 34,000  Level FlightAware ADS-B (CYYZ)
Sun 03:38:12 PM 43.5304 -80.6302 209° Southwest 463 533 34,000  Level FlightAware ADS-B (CYKF)
Sun 03:38:42 PM 43.4447 -80.6959 210° Southwest 462 532 34,000  Level FlightAware ADS-B (CYYZ)
Sun 03:39:12 PM 43.3881 -80.7391 210° Southwest 463 533 34,000  Level FlightAware ADS-B (CYYZ)
Sun 03:39:43 PM 43.3322 -80.7816 210° Southwest 463 533 34,000  Level FlightAware ADS-B (CYYZ)
Sun 03:40:12 PM 43.2764 -80.8241 210° Southwest 463 533 34,000  Level FlightAware ADS-B (CYYZ)
Sun 03:40:42 PM 43.2208 -80.8663 209° Southwest 464 534 34,000  Level FlightAware ADS-B (CYYZ)
Sun 03:41:13 PM 43.1636 -80.9097 209° Southwest 464 534 34,000  Level FlightAware ADS-B (CYKF)
Sun 03:41:42 PM 43.1071 -80.9524 209° Southwest 464 534 34,000  Level FlightAware ADS-B (CYYZ)
Sun 03:42:13 PM 43.0509 -80.9947 209° Southwest 465 535 34,000  Level FlightAware ADS-B (CYYZ)
Sun 03:42:43 PM 42.9939 -81.0377 209° Southwest 465 535 34,000  Level FlightAware ADS-B (CYYZ)
Sun 03:43:13 PM 42.9380 -81.0796 209° Southwest 464 534 34,000  Level FlightAware ADS-B (CYYZ)
Sun 03:43:42 PM 42.8810 -81.1223 209° Southwest 465 535 34,000  Level FlightAware ADS-B (CYYZ)
Sun 03:44:13 PM 42.8243 -81.1648 209° Southwest 466 536 34,000  Level FlightAware ADS-B (CYYZ)
Sun 03:44:43 PM 42.7673 -81.2072 209° Southwest 468 539 34,000  Level FlightAware ADS-B (CYYZ)
Sun 03:45:12 PM 42.7125 -81.2481 209° Southwest 469 540 34,000  Level FlightAware ADS-B (CYYZ)
Sun 03:45:13 PM 42.7138 -81.2471 209° Southwest 469 540 34,000  Level FlightAware ADS-B (CYKF)
Sun 03:45:42 PM 42.6558 -81.2902 209° Southwest 468 539 34,000  Level FlightAware ADS-B (CYYZ)
Sun 03:46:13 PM 42.5971 -81.3338 209° Southwest 468 539 34,000  Level FlightAware ADS-B (CYYZ)
Sun 03:46:43 PM 42.5402 -81.3759 209° Southwest 470 541 34,000  Level FlightAware ADS-B (CYYZ)
Sun 03:47:09 PM 42.4893 -81.4135 209° Southwest 472 543 34,000  Level FlightAware ADS-B (CYKF)
Sun 03:47:12 PM 42.4877 -81.4147 209° Southwest 471 542 34,000  Level FlightAware ADS-B (CYYZ)
Sun 03:47:42 PM 42.4250 -81.4608 209° Southwest 473 544 34,000  Level FlightAware ADS-B (CYYZ)
Sun 03:48:13 PM 42.3689 -81.5021 209° Southwest 472 543 34,000  Level FlightAware ADS-B (CYYZ)
Sun 03:48:42 PM 42.3150 -81.5417 209° Southwest 471 542 34,000  Level FlightAware ADS-B (CYYZ)
Sun 03:49:12 PM 42.2533 -81.5869 209° Southwest 471 542 34,000  Level FlightAware ADS-B (CYYZ)
Sun 03:49:42 PM 42.1978 -81.6274 209° Southwest 469 540 34,000  Level FlightAware ADS-B (CYYZ)
Sun 03:50:12 PM 42.1383 -81.6708 209° Southwest 469 540 34,000  Level FlightAware ADS-B (CYYZ)
Sun 03:50:43 PM 42.0796 -81.7136 209° Southwest 472 543 34,000  Level FlightAware ADS-B (CYYZ)
Sun 03:51:12 PM 42.0259 -81.7525 209° Southwest 472 543 34,000  Level FlightAware ADS-B (CYYZ)
Sun 03:51:42 PM 41.9650 -81.7967 209° Southwest 475 547 34,000  Level FlightAware ADS-B (CYYZ)
Sun 03:52:18 PM 41.8963 -81.8433 204° Southwest 478 550 34,000  Level FlightAware ADS-B (CYYZ)
Sun 03:52:47 PM 41.8438 -81.8737 205° Southwest 478 550 34,000  Level FlightAware ADS-B (CYYZ)
Sun 03:53:17 PM 41.7777 -81.9140 205° Southwest 477 549 34,000  Level FlightAware ADS-B (CYYZ)
Sun 03:53:47 PM 41.7154 -81.9514 205° Southwest 478 550 34,000  Level FlightAware ADS-B (CYYZ)
Sun 03:53:55 PM 41.7046 -81.9578 205° Southwest 478 550 34,000  Level FlightAware ADS-B (CYYZ)
Sun 03:54:47 PM 41.5990 -82.0203 204° Southwest 479 551 34,000  Level FlightAware ADS-B (CYYZ)
Sun 03:55:18 PM 41.5329 -82.0593 204° Southwest 477 549 34,000  Level FlightAware ADS-B (CYYZ)
Sun 03:55:47 PM 41.4816 -82.0895 204° Southwest 476 548 34,000  Level FlightAware ADS-B (CYYZ)
Sun 03:56:20 PM 41.4275 -82.1206 204° Southwest 477 549 34,000  Level Cleveland Center
Sun 03:57:22 PM 41.2817 -82.1867 199° South 477 549 34,000  Level Cleveland Center
Sun 03:58:24 PM 41.1542 -82.2344 196° South 477 549 34,000  Level Cleveland Center
Sun 03:59:26 PM 41.0242 -82.2825 196° South 478 550 34,000  Level Cleveland Center
Sun 04:00:29 PM 40.8936 -82.3286 195° South 480 552 34,000  Level Cleveland Center
Sun 04:08:19 PM 39.8470 -82.6091 183° South 490 564 34,000  Level FlightAware ADS-B
Sun 04:08:52 PM 39.7748 -82.6140 183° South 491 565 34,000  Level FlightAware ADS-B
Sun 04:09:25 PM 39.6968 -82.6193 183° South 490 564 34,000  Level FlightAware ADS-B
Sun 04:10:03 PM 39.6104 -82.6251 183° South 490 564 34,000  Level FlightAware ADS-B
Sun 04:10:50 PM 39.5089 -82.6319 183° South 491 565 34,000  Level FlightAware ADS-B
Sun 04:11:20 PM 39.4379 -82.6365 183° South 492 566 34,000  Level FlightAware ADS-B
Sun 04:11:50 PM 39.3706 -82.6411 183° South 492 566 34,000  Level FlightAware ADS-B
Sun 04:12:25 PM 39.2951 -82.6462 183° South 492 566 34,000  Level FlightAware ADS-B
Sun 04:12:57 PM 39.2166 -82.6514 183° South 491 565 34,000  Level FlightAware ADS-B
Sun 04:13:33 PM 39.1353 -82.6569 183° South 492 566 34,000  Level FlightAware ADS-B
Sun 04:14:04 PM 39.0664 -82.6614 183° South 493 567 34,000  Level FlightAware ADS-B
Sun 04:14:34 PM 38.9974 -82.6659 183° South 494 568 34,000  Level FlightAware ADS-B
Sun 04:15:11 PM 38.9105 -82.6716 183° South 496 571 34,000  Level FlightAware ADS-B
Sun 04:15:42 PM 38.8405 -82.6762 183° South 498 573 34,000  Level FlightAware ADS-B
Sun 04:16:12 PM 38.7719 -82.6808 183° South 498 573 34,000  Level FlightAware ADS-B
Sun 04:16:29 PM 38.7600 -82.6828 208° Southwest 490 564 34,000  Level Indianapolis Center
Sun 04:16:46 PM 38.6925 -82.6860 183° South 497 572 34,000  Level FlightAware ADS-B
Sun 04:17:31 PM 38.5986 -82.6919 183° South 491 565 34,000  Level Indianapolis Center
Sun 04:18:33 PM 38.4608 -82.7008 183° South 491 565 34,000  Level Indianapolis Center
Sun 04:19:35 PM 38.3208 -82.7108 183° South 498 573 34,000  Level Indianapolis Center
Sun 04:20:37 PM 38.1833 -82.7203 183° South 497 572 34,000  Level Indianapolis Center
Sun 04:21:39 PM 38.0453 -82.7292 183° South 497 572 34,000  Level Indianapolis Center
Sun 04:22:00 PM 38.0629 -82.7208 182° South  Level FlightAware Approximate
Sun 04:22:41 PM 37.8819 -82.7383 183° South 498 573 34,000  Level Indianapolis Center
Sun 04:23:00 PM 37.9426 -82.7274 182° South  Level FlightAware Approximate
Sun 04:23:43 PM 37.7439 -82.7494 184° South 498 573 34,000  Level Indianapolis Center
Sun 04:24:00 PM 37.8223 -82.7333 180° South  Level FlightAware Approximate
Sun 04:24:45 PM 37.6119 -82.7969 196° South 494 568 34,000  Level Indianapolis Center
Sun 04:25:00 PM 37.7022 -82.7425 186° South  Level FlightAware Approximate
Sun 04:25:47 PM 37.4925 -82.8733 207° Southwest 487 560 34,000  Level Indianapolis Center
Sun 04:26:00 PM 37.5901 -82.7902 208° Southwest  Level FlightAware Approximate
Sun 04:26:49 PM 37.3731 -82.9531 208° Southwest 484 557 34,000  Level Indianapolis Center
Sun 04:27:52 PM 37.2339 -83.0436 207° Southwest 484 557 34,000  Level Indianapolis Center
Sun 04:28:54 PM 37.1150 -83.1217 208° Southwest 484 557 34,000  Level Indianapolis Center
Sun 04:29:56 PM 36.9956 -83.1997 208° Southwest 485 558 34,000  Level Indianapolis Center
Sun 04:30:58 PM 36.8750 -83.2769 207° Southwest 486 559 34,000  Level Indianapolis Center
Sun 04:32:00 PM 36.7353 -83.3672 207° Southwest 486 559 34,000  Level Indianapolis Center
Sun 04:33:02 PM 36.6147 -83.4442 207° Southwest 486 559 34,000  Level Indianapolis Center
Sun 04:34:04 PM 36.4889 -83.5239 207° Southwest 488 562 34,000  Level Indianapolis Center
Sun 04:35:06 PM 36.3653 -83.6031 207° Southwest 493 567 34,000  Level Indianapolis Center
Sun 04:36:08 PM 36.2419 -83.6833 208° Southwest 496 571 34,000  Level Indianapolis Center
Sun 04:37:16 PM 36.0892 -83.7792 207° Southwest 498 573 34,000  Level Atlanta Center
Sun 04:38:16 PM 35.9683 -83.8567 207° Southwest 493 567 34,000  Level Atlanta Center
Sun 04:44:07 PM 35.1188 -84.0849 191° South 495 570 34,000  Level FlightAware ADS-B (KDZJ)
Sun 04:44:47 PM 35.0278 -84.1067 191° South 496 571 34,000  Level FlightAware ADS-B (KDZJ)
Sun 04:45:25 PM 34.9419 -84.1271 191° South 496 571 34,000  Level FlightAware ADS-B (KDZJ)
Sun 04:46:06 PM 34.8465 -84.1498 191° South 493 567 34,000  Level FlightAware ADS-B (KDZJ)
Sun 04:46:46 PM 34.7552 -84.1715 191° South 492 566 34,000 82 Level FlightAware ADS-B (KDZJ)
Sun 04:47:19 PM 34.6824 -84.1888 191° South 496 571 34,100 769 Climbing FlightAware ADS-B (KDZJ)
Sun 04:48:04 PM 34.5770 -84.2137 191° South 494 568 35,000 607 Climbing FlightAware ADS-B (KDZJ)
Sun 04:48:48 PM 34.4782 -84.2370 191° South 491 565 35,000  Level FlightAware ADS-B (KDZJ)
Sun 04:49:26 PM 34.3924 -84.2572 191° South 488 562 35,000  Level FlightAware ADS-B (KDZJ)
Sun 04:50:07 PM 34.2995 -84.2790 191° South 490 564 35,000  Level FlightAware ADS-B (KDZJ)
Sun 04:50:48 PM 34.2076 -84.3006 191° South 490 564 35,000  Level FlightAware ADS-B (KDZJ)
Sun 04:51:27 PM 34.1176 -84.3217 191° South 491 565 35,000  Level FlightAware ADS-B (KDZJ)
Sun 04:52:06 PM 34.0289 -84.3423 191° South 492 566 35,000  Level FlightAware ADS-B (KDZJ)
Sun 04:53:16 PM 33.9211 -84.3692 191° South 508 585 35,000  Level Atlanta Center
Sun 04:54:16 PM 33.7833 -84.4011 191° South 508 585 35,000  Level Atlanta Center
Sun 04:55:16 PM 33.6475 -84.4306 190° South 508 585 35,000  Level Atlanta Center
Sun 04:56:16 PM 33.5056 -84.4375 182° South 516 594 35,000  Level Atlanta Center
Sun 04:57:16 PM 33.3636 -84.4344 179° South 511 588 35,000  Level Atlanta Center
Sun 04:58:16 PM 33.2258 -84.4286 178° South 511 588 35,000  Level Atlanta Center
Sun 04:59:16 PM 33.0881 -84.4306 181° South 504 580 35,000  Level Atlanta Center
Sun 05:00:16 PM 32.9525 -84.4275 179° South 493 567 35,000  Level Atlanta Center
Sun 05:01:16 PM 32.8167 -84.4244 179° South 493 567 35,000  Level Atlanta Center
Sun 05:02:16 PM 32.6792 -84.4139 176° South 493 567 35,000  Level Atlanta Center
Sun 05:03:16 PM 32.5433 -84.4133 180° South 493 567 35,000  Level Atlanta Center
Sun 05:04:16 PM 32.4097 -84.4128 180° South 493 567 35,000  Level Atlanta Center
Sun 05:05:16 PM 32.2783 -84.4097 179° South 493 567 35,000  Level Atlanta Center
Sun 05:07:23 PM 32.0136 -84.4019 179° South 478 550 35,000  Level Jacksonville Center
Sun 05:13:41 PM 31.1807 -84.2241 158° South 492 566 35,000  Level FlightAware ADS-B (KONZ)
Sun 05:14:22 PM 31.0940 -84.1825 157° South 492 566 35,000  Level FlightAware ADS-B (KONZ)
Sun 05:15:22 PM 30.9705 -84.1223 157° South 490 564 35,000  Level FlightAware ADS-B (KONZ)
Sun 05:16:33 PM 30.8197 -84.0492 157° South 494 568 35,000  Level FlightAware ADS-B (KONZ)
Sun 05:17:03 PM 30.7600 -84.0203 157° South 493 567 35,000  Level FlightAware ADS-B (KONZ)
Sun 05:17:42 PM 30.6741 -83.9789 157° South 492 566 35,000  Level FlightAware ADS-B (KONZ)
Sun 05:18:14 PM 30.6162 -83.9511 157° South 491 565 35,000  Level FlightAware ADS-B (KONZ)
Sun 05:18:53 PM 30.5239 -83.9066 157° South 488 562 35,000  Level FlightAware ADS-B (KONZ)
Sun 05:19:24 PM 30.4614 -83.8765 158° South 485 558 35,000  Level FlightAware ADS-B (KONZ)
Sun 05:20:03 PM 30.3844 -83.8397 157° South 484 557 35,000  Level FlightAware ADS-B (KONZ)
Sun 05:20:50 PM 30.2837 -83.7915 158° South 485 558 35,000  Level FlightAware ADS-B (KONZ)
Sun 05:21:23 PM 30.2158 -83.7591 158° South 486 559 35,000  Level FlightAware ADS-B (KONZ)
Sun 05:22:33 PM 30.0697 -83.6895 157° South 487 560 35,000  Level FlightAware ADS-B (KONZ)
Sun 05:23:23 PM 29.9719 -83.6456 157° South 484 557 35,000  Level Jacksonville Center
Sun 05:24:23 PM 29.8469 -83.5869 158° South 489 563 35,000  Level Jacksonville Center
Sun 05:25:23 PM 29.7200 -83.5264 157° South 489 563 35,000  Level Jacksonville Center
Sun 05:26:23 PM 29.5950 -83.4681 158° South 490 564 35,000  Level Jacksonville Center
Sun 05:27:23 PM 29.4700 -83.4078 157° South 490 564 35,000  Level Jacksonville Center
Sun 05:28:23 PM 29.3450 -83.3500 158° South 490 564 35,000  Level Jacksonville Center
Sun 05:33:37 PM 28.6983 -83.0467 158° South 471 542 35,000  Level FlightAware ADS-B
Sun 05:34:07 PM 28.6441 -83.0216 158° South 469 540 35,000  Level FlightAware ADS-B
Sun 05:35:32 PM 28.4638 -82.9387 158° South 474 545 35,000  Level FlightAware ADS-B
Sun 05:36:14 PM 28.3789 -82.8996 158° South 473 544 35,000  Level FlightAware ADS-B
Sun 05:36:48 PM 28.3106 -82.8683 158° South 472 543 35,000  Level FlightAware ADS-B
Sun 05:37:37 PM 28.2108 -82.8225 158° South 471 542 35,000  Level FlightAware ADS-B
Sun 05:38:40 PM 28.0842 -82.7647 158° South 484 557 35,000  Level FlightAware ADS-B (KSFB)
Sun 05:39:15 PM 28.2108 -82.8225 158° South 467 537 35,000  Level FlightAware ADS-B
Sun 05:40:42 PM 27.8430 -82.6424 149° Southeast 478 550 35,000  Level FlightAware ADS-B (KSFB)
Sun 05:41:28 PM 27.7564 -82.5834 149° Southeast 475 547 35,000  Level FlightAware ADS-B
Sun 05:42:08 PM 27.6791 -82.5317 149° Southeast 473 544 35,000  Level FlightAware ADS-B
Sun 05:42:57 PM 27.6005 -82.4794 149° Southeast 474 545 35,000  Level FlightAware ADS-B (KSFB)
Sun 05:43:28 PM 27.5360 -82.4366 149° Southeast 473 544 35,000  Level FlightAware ADS-B (KSFB)
Sun 05:43:58 PM 27.4725 -82.3945 149° Southeast 473 544 35,000  Level FlightAware ADS-B (KSFB)
Sun 05:44:05 PM 27.4593 -82.3857 150° Southeast 473 544 35,000  Level FlightAware ADS-B
Sun 05:44:40 PM 27.3972 -82.3446 149° Southeast 474 545 35,000  Level FlightAware ADS-B
Sun 05:45:16 PM 27.3669 -82.3245 149° Southeast 474 545 35,000  Level FlightAware ADS-B
Sun 05:45:59 PM 27.2401 -82.2720 178° South 430 495 35,000  Level FlightAware ADS-B (KSFB)
Sun 05:46:29 PM 27.1805 -82.2766 184° South 424 488 35,000  Level FlightAware ADS-B (KSFB)
Sun 05:47:00 PM 27.1208 -82.2812 184° South 429 494 35,000  Level FlightAware ADS-B (KSFB)
Sun 05:47:30 PM 27.0618 -82.2856 184° South 432 497 35,000  Level FlightAware ADS-B (KSFB)
Sun 05:48:00 PM 27.0016 -82.2903 184° South 434 499 35,000  Level FlightAware ADS-B (KSFB)
Sun 05:48:37 PM 26.9258 -82.2962 184° South 434 499 35,000  Level FlightAware ADS-B (KSFB)
Sun 05:49:12 PM 26.8570 -82.3015 184° South 432 497 35,000  Level FlightAware ADS-B
Sun 05:49:47 PM 26.7906 -82.3066 184° South 432 497 35,000  Level FlightAware ADS-B
Sun 05:50:23 PM 26.7153 -82.3125 184° South 431 496 35,000  Level FlightAware ADS-B (KSFB)
Sun 05:51:02 PM 26.6387 -82.3184 184° South 431 496 35,000  Level FlightAware ADS-B (KSFB)
Sun 05:51:50 PM 26.5448 -82.3257 184° South 430 495 35,000  Level FlightAware ADS-B
Sun 05:52:40 PM 26.4447 -82.3334 184° South 428 493 35,000  Level FlightAware ADS-B
Sun 05:53:12 PM 26.3798 -82.3384 184° South 427 491 35,000  Level FlightAware ADS-B
Sun 05:53:52 PM 26.3020 -82.3445 184° South 426 490 35,000  Level FlightAware ADS-B
Sun 05:54:32 PM 26.2213 -82.3507 184° South 426 490 35,000  Level FlightAware ADS-B
Sun 05:55:10 PM 26.1451 -82.3566 184° South 428 493 35,000  Level FlightAware ADS-B
Sun 05:55:42 PM 26.0905 -82.3608 184° South 429 494 35,000  Level FlightAware ADS-B
Sun 05:56:12 PM 26.0283 -82.3656 184° South 431 496 35,000  Level FlightAware ADS-B
Sun 05:56:52 PM 25.9500 -82.3716 184° South 433 498 35,000  Level FlightAware ADS-B
Sun 05:57:23 PM 25.8815 -82.3768 184° South 434 499 35,000  Level FlightAware ADS-B
Sun 05:58:02 PM 25.8024 -82.3829 184° South 434 499 35,000  Level FlightAware ADS-B
Sun 05:58:39 PM 25.7282 -82.3886 184° South 434 499 35,000  Level FlightAware ADS-B
Sun 05:59:12 PM 25.6623 -82.3936 184° South 434 499 35,000  Level FlightAware ADS-B
Sun 06:00:30 PM 25.5131 -82.4049 184° South 434 499 35,000 -75 Level FlightAware ADS-B
Sun 06:01:51 PM 25.3506 -82.4197 184° South 440 506 34,800 -511 Descending Miami Center
Sun 06:02:51 PM 25.2269 -82.4303 184° South 440 506 33,800 -850 Descending Miami Center
Sun 06:03:51 PM 25.1308 -82.4350 183° South 440 506 33,100 -900 Descending Miami Center
Sun 06:04:51 PM 25.0008 -82.4450 184° South 440 506 32,000 -1,250 Descending Miami Center
Sun 06:05:51 PM 24.8711 -82.4553 184° South 440 506 30,600 -1,400 Descending Miami Center
Sun 06:06:51 PM 24.7581 -82.4639 184° South 429 494 29,200 -1,550 Descending Miami Center
Sun 06:07:51 PM 24.6469 -82.4725 184° South 419 482 27,500 -1,650 Descending Miami Center
Sun 06:08:51 PM 24.5361 -82.4789 183° South 409 471 25,900 -1,550 Descending Miami Center
Sun 06:09:51 PM 24.4314 -82.4878 184° South 398 458 24,400 -1,750 Descending Miami Center
Sun 06:10:51 PM 24.3289 -82.4969 185° South 385 443 22,400 -1,200 Descending Miami Center
Sun 06:11:51 PM 24.2242 -82.5058 184° South 385 443 22,000 -200 Descending Miami Center
Sun 06:12:51 PM 24.1236 -82.5125 183° South 375 432 22,000  Level Miami Center
Sun 06:13:51 PM 24.0189 -82.5192 183° South 375 432 22,000  Level Miami Center
Sun 06:15:00 PM 23.8818 -82.5044 176° South  Level Estimated
Sun 06:22:00 PM 23.0425 -82.4000 180° South  Level FlightAware Approximate
Sun 06:23:00 PM 22.9891 -82.4091 180° South  Level Estimated
Sun 06:24:00 PM 22.9891 -82.4091 180° South  Level Estimated
Sun 06:25:00 PM 22.9891 -82.4091 180° South  Level Estimated
Sun 06:26:00 PM 22.9891 -82.4091 180° South  Level Estimated
Sun 06:27:00 PM 22.9891 -82.4091 180° South  Level Estimated
Sun 06:28:00 PM 22.9891 -82.4091 180° South  Level Estimated
Sun 06:29:00 PM 22.9891 -82.4091 180° South  Level Estimated
Sun 06:30:00 PM 22.9891 -82.4091 180° South  Level Estimated
Sun 06:31:00 PM 22.9891 -82.4091 180° South  Level Estimated
Sun 06:32:00 PM 22.9891 -82.4091 180° South  Level Estimated
Sun 06:33:00 PM 22.9891 -82.4091 180° South  Level Estimated
Sun 06:34:00 PM 22.9891 -82.4091 180° South  Level Estimated
Sun 06:35:00 PM 22.9891 -82.4091 180° South  Level Estimated
Sun 06:36:00 PM 22.9891 -82.4091 180° South  Level Estimated
Sun 06:37:00 PM 22.9891 -82.4091 180° South  Level Estimated
Sun 06:38:00 PM 22.9891 -82.4091 180° South  Level Estimated
Sun 06:39:00 PM 22.9891 -82.4091 180° South  Level Estimated
Sun 06:40:00 PM 22.9891 -82.4091 180° South  Level Estimated
Sun 06:41:00 PM 22.9891 -82.4091 180° South  Level Estimated
Sun 06:42:00 PM 22.9891 -82.4091 180° South  Level Estimated
Sun 06:43:00 PM 22.9891 -82.4091 180° South  Level Estimated
Sun 06:44:00 PM 22.9891 -82.4091 180° South  Level Estimated

Login

Don't have an account? Register now (free) for customized features, flight alerts, and more!